createdAt,value
2017-01-04T00:00:43.242Z,0
2017-01-04T00:01:42.623Z,0
2017-01-04T00:02:42.912Z,0
2017-01-04T00:03:43.504Z,0
2017-01-04T00:04:42.892Z,0
2017-01-04T00:05:43.783Z,0
2017-01-04T00:06:43.409Z,0
2017-01-04T00:07:43.948Z,0
2017-01-04T00:08:43.102Z,0
2017-01-04T00:09:42.785Z,0
2017-01-04T00:10:42.650Z,0
2017-01-04T00:11:43.408Z,0
2017-01-04T00:12:43.831Z,0
2017-01-04T00:13:43.157Z,0
2017-01-04T00:14:42.478Z,0
2017-01-04T00:15:43.499Z,0
2017-01-04T00:16:42.645Z,0
2017-01-04T00:17:42.846Z,0
2017-01-04T00:18:43.484Z,0
2017-01-04T00:19:43.636Z,0
2017-01-04T00:20:43.429Z,0
2017-01-04T00:21:43.149Z,0
2017-01-04T00:22:44.045Z,0
2017-01-04T00:23:43.532Z,0
2017-01-04T00:24:44.780Z,0
2017-01-04T00:25:42.937Z,0
2017-01-04T00:26:44.287Z,0
2017-01-04T00:27:43.637Z,0
2017-01-04T00:28:42.857Z,0
2017-01-04T00:29:43.147Z,0
2017-01-04T00:30:44.312Z,0
2017-01-04T00:31:43.672Z,0
2017-01-04T00:32:44.612Z,0
2017-01-04T00:33:43.229Z,0
2017-01-04T00:34:44.869Z,0
2017-01-04T00:35:43.610Z,0
2017-01-04T00:36:43.671Z,0
2017-01-04T00:37:43.656Z,0
2017-01-04T00:38:43.572Z,0
2017-01-04T00:39:43.551Z,0
2017-01-04T00:40:44.393Z,0
2017-01-04T00:41:43.469Z,0
2017-01-04T00:42:44.177Z,0
2017-01-04T00:43:43.063Z,0
2017-01-04T00:44:44.529Z,0
2017-01-04T00:45:43.752Z,0
2017-01-04T00:46:43.539Z,0
2017-01-04T00:47:44.074Z,0
2017-01-04T00:48:43.824Z,0
2017-01-04T00:49:43.983Z,0
2017-01-04T00:50:43.514Z,0
2017-01-04T00:51:43.717Z,0
2017-01-04T00:52:43.256Z,0
2017-01-04T00:53:44.954Z,0
2017-01-04T00:54:43.399Z,0
2017-01-04T00:55:44.673Z,0
2017-01-04T00:56:43.625Z,0
2017-01-04T00:57:45.150Z,0
2017-01-04T00:58:44.045Z,0
2017-01-04T00:59:43.452Z,0
2017-01-04T01:00:45.415Z,0
2017-01-04T01:01:44.276Z,0
2017-01-04T01:02:44.226Z,0
2017-01-04T01:03:43.141Z,0
2017-01-04T01:04:44.320Z,0
2017-01-04T01:05:44.520Z,0
2017-01-04T01:06:44.397Z,0
2017-01-04T01:07:44.615Z,0
2017-01-04T01:08:44.254Z,0
2017-01-04T01:09:43.580Z,0
2017-01-04T01:10:45.074Z,0
2017-01-04T01:11:44.706Z,0
2017-01-04T01:12:44.026Z,0
2017-01-04T01:13:44.443Z,0
2017-01-04T01:14:44.468Z,0
2017-01-04T01:15:44.666Z,0
2017-01-04T01:16:43.645Z,0
2017-01-04T01:17:44.052Z,0
2017-01-04T01:18:43.761Z,0
2017-01-04T01:19:44.471Z,0
2017-01-04T01:20:44.218Z,0
2017-01-04T01:21:43.779Z,0
2017-01-04T01:22:43.743Z,0
2017-01-04T01:23:44.463Z,0
2017-01-04T01:24:44.273Z,0
2017-01-04T01:25:43.848Z,0
2017-01-04T01:26:43.290Z,0
2017-01-04T01:27:44.019Z,0
2017-01-04T01:28:43.791Z,0
2017-01-04T01:29:44.870Z,0
2017-01-04T01:30:44.348Z,0
2017-01-04T01:31:44.682Z,0
2017-01-04T01:32:45.042Z,0
2017-01-04T01:33:45.095Z,0
2017-01-04T01:34:44.970Z,0
2017-01-04T01:35:44.558Z,0
2017-01-04T01:36:44.767Z,0
2017-01-04T01:37:44.581Z,0
2017-01-04T01:38:45.352Z,0
2017-01-04T01:39:44.512Z,0
2017-01-04T01:40:45.141Z,0
2017-01-04T01:41:45.283Z,0
2017-01-04T01:42:44.746Z,0
2017-01-04T01:43:44.677Z,0
2017-01-04T01:44:45.235Z,0
2017-01-04T01:45:44.960Z,0
2017-01-04T01:46:44.724Z,0
2017-01-04T01:47:44.183Z,0
2017-01-04T01:48:44.863Z,0
2017-01-04T01:49:45.327Z,0
2017-01-04T01:50:44.463Z,0
2017-01-04T01:51:44.851Z,0
2017-01-04T01:52:44.399Z,0
2017-01-04T01:53:44.355Z,0
2017-01-04T01:54:45.945Z,0
2017-01-04T01:55:44.464Z,0
2017-01-04T01:56:43.901Z,0
2017-01-04T01:57:45.072Z,0
2017-01-04T01:58:45.318Z,0
2017-01-04T01:59:44.728Z,0
2017-01-04T02:00:44.017Z,0
2017-01-04T02:01:45.721Z,0
2017-01-04T02:02:44.951Z,0
2017-01-04T02:03:44.100Z,0
2017-01-04T02:04:43.992Z,0
2017-01-04T02:05:44.716Z,0
2017-01-04T02:06:45.688Z,0
2017-01-04T02:07:44.439Z,0
2017-01-04T02:08:44.765Z,0
2017-01-04T02:09:45.118Z,0
2017-01-04T02:10:44.846Z,0
2017-01-04T02:11:44.670Z,0
2017-01-04T02:12:44.932Z,0
2017-01-04T02:13:44.553Z,0
2017-01-04T02:14:44.512Z,0
2017-01-04T02:15:44.723Z,0
2017-01-04T02:16:44.470Z,0
2017-01-04T02:17:44.984Z,0
2017-01-04T02:18:44.788Z,0
2017-01-04T02:19:45.056Z,0
2017-01-04T02:20:44.371Z,0
2017-01-04T02:21:44.852Z,0
2017-01-04T02:22:44.607Z,0
2017-01-04T02:23:45.643Z,0
2017-01-04T02:24:44.508Z,0
2017-01-04T02:25:46.462Z,0
2017-01-04T02:26:44.855Z,0
2017-01-04T02:27:45.232Z,0
2017-01-04T02:28:45.276Z,0
2017-01-04T02:29:45.577Z,0
2017-01-04T02:30:44.491Z,0
2017-01-04T02:31:45.005Z,0
2017-01-04T02:32:45.945Z,0
2017-01-04T02:33:45.284Z,0
2017-01-04T02:34:45.095Z,0
2017-01-04T02:35:45.108Z,0
2017-01-04T02:36:45.585Z,0
2017-01-04T02:37:44.882Z,0
2017-01-04T02:38:45.645Z,0
2017-01-04T02:39:45.193Z,0
2017-01-04T02:40:45.425Z,0
2017-01-04T02:41:45.276Z,0
2017-01-04T02:42:44.456Z,0
2017-01-04T02:43:45.123Z,0
2017-01-04T02:44:46.780Z,0
2017-01-04T02:45:45.570Z,0
2017-01-04T02:46:44.673Z,0
2017-01-04T02:47:45.718Z,0
2017-01-04T02:48:46.213Z,0
2017-01-04T02:49:44.520Z,0
2017-01-04T02:50:44.830Z,0
2017-01-04T02:51:45.360Z,0
2017-01-04T02:52:44.983Z,0
2017-01-04T02:53:45.761Z,0
2017-01-04T02:54:45.598Z,0
2017-01-04T02:55:44.947Z,0
2017-01-04T02:56:44.906Z,0
2017-01-04T02:57:45.594Z,0
2017-01-04T02:58:45.931Z,0
2017-01-04T02:59:45.798Z,0
2017-01-04T03:00:44.616Z,0
2017-01-04T03:01:46.225Z,0
2017-01-04T03:02:44.973Z,0
2017-01-04T03:03:45.843Z,0
2017-01-04T03:04:45.526Z,0
2017-01-04T03:05:45.219Z,0
2017-01-04T03:06:45.823Z,0
2017-01-04T03:07:46.517Z,0
2017-01-04T03:08:46.340Z,0
2017-01-04T03:09:45.918Z,0
2017-01-04T03:10:45.634Z,0
2017-01-04T03:11:45.325Z,0
2017-01-04T03:12:46.362Z,0
2017-01-04T03:13:45.303Z,0
2017-01-04T03:14:46.324Z,0
2017-01-04T03:15:46.697Z,0
2017-01-04T03:16:45.390Z,0
2017-01-04T03:17:45.576Z,0
2017-01-04T03:18:46.541Z,0
2017-01-04T03:19:45.295Z,0
2017-01-04T03:20:45.913Z,0
2017-01-04T03:21:45.616Z,0
2017-01-04T03:22:46.025Z,0
2017-01-04T03:23:45.608Z,0
2017-01-04T03:24:45.881Z,0
2017-01-04T03:25:45.856Z,0
2017-01-04T03:26:45.423Z,0
2017-01-04T03:27:45.755Z,0
2017-01-04T03:28:45.323Z,0
2017-01-04T03:29:45.927Z,0
2017-01-04T03:30:46.736Z,0
2017-01-04T03:31:45.870Z,0
2017-01-04T03:32:45.604Z,0
2017-01-04T03:33:46.579Z,0
2017-01-04T03:34:46.139Z,0
2017-01-04T03:35:46.266Z,0
2017-01-04T03:36:45.262Z,0
2017-01-04T03:37:45.500Z,0
2017-01-04T03:38:45.280Z,0
2017-01-04T03:39:46.565Z,0
2017-01-04T03:40:47.338Z,0
2017-01-04T03:41:46.360Z,0
2017-01-04T03:42:46.669Z,0
2017-01-04T03:43:47.187Z,0
2017-01-04T03:44:45.926Z,0
2017-01-04T03:45:46.982Z,0
2017-01-04T03:46:46.228Z,0
2017-01-04T03:47:46.152Z,0
2017-01-04T03:48:45.847Z,0
2017-01-04T03:49:45.524Z,0
2017-01-04T03:50:46.330Z,0
2017-01-04T03:51:45.502Z,0
2017-01-04T03:52:46.643Z,0
2017-01-04T03:53:45.871Z,0
2017-01-04T03:54:46.170Z,0
2017-01-04T03:55:46.515Z,0
2017-01-04T03:56:45.855Z,0
2017-01-04T03:57:47.479Z,0
2017-01-04T03:58:46.137Z,0
2017-01-04T03:59:45.272Z,0
2017-01-04T04:00:46.096Z,0
2017-01-04T04:01:47.141Z,0
2017-01-04T04:02:45.731Z,0
2017-01-04T04:03:45.401Z,0
2017-01-04T04:04:45.967Z,0
2017-01-04T04:05:47.301Z,0
2017-01-04T04:06:46.596Z,0
2017-01-04T04:07:46.764Z,0
2017-01-04T04:08:46.447Z,0
2017-01-04T04:09:45.882Z,0
2017-01-04T04:10:46.213Z,0
2017-01-04T04:11:46.757Z,0
2017-01-04T04:12:46.509Z,0
2017-01-04T04:13:46.522Z,0
2017-01-04T04:14:46.531Z,0
2017-01-04T04:15:46.934Z,0
2017-01-04T04:16:46.482Z,0
2017-01-04T04:17:46.799Z,0
2017-01-04T04:18:46.271Z,0
2017-01-04T04:19:46.786Z,0
2017-01-04T04:20:45.987Z,0
2017-01-04T04:21:46.759Z,0
2017-01-04T04:22:46.469Z,0
2017-01-04T04:23:46.844Z,0
2017-01-04T04:24:47.451Z,0
2017-01-04T04:25:46.690Z,0
2017-01-04T04:26:47.545Z,0
2017-01-04T04:27:46.197Z,0
2017-01-04T04:28:46.506Z,0
2017-01-04T04:29:47.467Z,0
2017-01-04T04:30:47.101Z,0
2017-01-04T04:31:47.566Z,0
2017-01-04T04:32:47.140Z,0
2017-01-04T04:33:47.200Z,0
2017-01-04T04:34:46.942Z,0
2017-01-04T04:35:47.760Z,0
2017-01-04T04:36:48.087Z,0
2017-01-04T04:37:47.268Z,0
2017-01-04T04:38:46.115Z,0
2017-01-04T04:39:46.187Z,0
2017-01-04T04:40:47.992Z,0
2017-01-04T04:41:47.381Z,0
2017-01-04T04:42:47.718Z,0
2017-01-04T04:43:46.501Z,0
2017-01-04T04:44:46.721Z,0
2017-01-04T04:45:47.884Z,0
2017-01-04T04:46:47.182Z,0
2017-01-04T04:47:46.715Z,0
2017-01-04T04:48:46.709Z,0
2017-01-04T04:49:46.754Z,0
2017-01-04T04:50:47.351Z,0
2017-01-04T04:51:46.876Z,0
2017-01-04T04:52:46.833Z,0
2017-01-04T04:53:47.060Z,0
2017-01-04T04:54:48.474Z,0
2017-01-04T04:55:48.352Z,0
2017-01-04T04:56:47.526Z,0
2017-01-04T04:57:46.854Z,0
2017-01-04T04:58:47.432Z,0
2017-01-04T04:59:46.784Z,0
2017-01-04T05:00:46.422Z,0
2017-01-04T05:01:47.026Z,0
2017-01-04T05:02:46.400Z,0
2017-01-04T05:03:46.954Z,0
2017-01-04T05:04:47.897Z,0
2017-01-04T05:05:46.359Z,0
2017-01-04T05:06:49.312Z,0
2017-01-04T05:07:48.213Z,0
2017-01-04T05:08:47.979Z,0
2017-01-04T05:09:48.851Z,0
2017-01-04T05:10:47.409Z,0
2017-01-04T05:11:48.602Z,0
2017-01-04T05:12:47.725Z,0
2017-01-04T05:13:48.499Z,0
2017-01-04T05:14:47.892Z,0
2017-01-04T05:15:47.686Z,0
2017-01-04T05:16:49.547Z,0
2017-01-04T05:17:48.843Z,0
2017-01-04T05:18:49.993Z,0
2017-01-04T05:19:49.579Z,0
2017-01-04T05:20:47.901Z,0
2017-01-04T05:21:49.300Z,0
2017-01-04T05:22:49.376Z,0
2017-01-04T05:23:49.618Z,0
2017-01-04T05:24:47.279Z,0
2017-01-04T05:25:48.163Z,0
2017-01-04T05:26:47.766Z,0
2017-01-04T05:27:50.086Z,0
2017-01-04T05:28:48.487Z,0
2017-01-04T05:29:48.518Z,0
2017-01-04T05:30:49.055Z,0
2017-01-04T05:31:47.705Z,0
2017-01-04T05:32:49.673Z,0
2017-01-04T05:33:49.798Z,0
2017-01-04T05:34:48.735Z,0
2017-01-04T05:35:49.934Z,0
2017-01-04T05:36:47.730Z,0
2017-01-04T05:37:48.920Z,0
2017-01-04T05:38:48.893Z,0
2017-01-04T05:39:47.830Z,0
2017-01-04T05:40:48.349Z,0
2017-01-04T05:41:48.619Z,0
2017-01-04T05:42:48.360Z,0
2017-01-04T05:43:49.258Z,0
2017-01-04T05:44:48.882Z,0
2017-01-04T05:45:48.449Z,0
2017-01-04T05:46:48.478Z,0
2017-01-04T05:47:49.409Z,0
2017-01-04T05:48:47.598Z,0
2017-01-04T05:49:49.243Z,0
2017-01-04T05:50:47.587Z,0
2017-01-04T05:51:48.261Z,0
2017-01-04T05:52:48.782Z,0
2017-01-04T05:53:49.672Z,0
2017-01-04T05:54:48.417Z,0
2017-01-04T05:55:48.667Z,0
2017-01-04T05:56:49.646Z,0
2017-01-04T05:57:48.682Z,0
2017-01-04T05:58:48.611Z,0
2017-01-04T05:59:48.166Z,0
2017-01-04T06:00:51.065Z,0
2017-01-04T06:01:49.199Z,0
2017-01-04T06:02:48.968Z,0
2017-01-04T06:03:48.334Z,0
2017-01-04T06:04:48.625Z,0
2017-01-04T06:05:47.745Z,0
2017-01-04T06:06:49.275Z,0
2017-01-04T06:07:47.700Z,0
2017-01-04T06:08:48.808Z,0
2017-01-04T06:09:48.490Z,0
2017-01-04T06:10:49.807Z,0
2017-01-04T06:11:49.642Z,0
2017-01-04T06:12:49.807Z,0
2017-01-04T06:13:49.750Z,0
2017-01-04T06:14:49.988Z,0
2017-01-04T06:15:49.795Z,0
2017-01-04T06:16:49.335Z,0
2017-01-04T06:17:48.335Z,0
2017-01-04T06:18:48.600Z,0
2017-01-04T06:19:48.780Z,0
2017-01-04T06:20:48.099Z,0
2017-01-04T06:21:48.450Z,0
2017-01-04T06:22:49.141Z,0
2017-01-04T06:23:49.035Z,0
2017-01-04T06:24:48.554Z,0
2017-01-04T06:25:50.306Z,0
2017-01-04T06:26:49.224Z,0
2017-01-04T06:27:50.976Z,0
2017-01-04T06:28:48.405Z,0
2017-01-04T06:29:49.367Z,0
2017-01-04T06:30:50.043Z,0
2017-01-04T06:31:49.865Z,0
2017-01-04T06:32:49.631Z,0
2017-01-04T06:33:50.517Z,0
2017-01-04T06:34:48.905Z,0
2017-01-04T06:35:48.840Z,0
2017-01-04T06:36:49.990Z,0
2017-01-04T06:37:49.365Z,0
2017-01-04T06:38:48.912Z,0
2017-01-04T06:39:48.442Z,0
2017-01-04T06:40:49.265Z,0
2017-01-04T06:41:48.789Z,0
2017-01-04T06:42:49.287Z,0
2017-01-04T06:43:49.927Z,0
2017-01-04T06:44:49.343Z,0
2017-01-04T06:45:49.290Z,0
2017-01-04T06:46:49.990Z,0
2017-01-04T06:47:49.197Z,0
2017-01-04T06:48:48.774Z,0
2017-01-04T06:49:49.882Z,0
2017-01-04T06:50:49.028Z,0
2017-01-04T06:51:49.942Z,0
2017-01-04T06:52:49.777Z,0
2017-01-04T06:53:49.621Z,0
2017-01-04T06:54:50.556Z,0
2017-01-04T06:55:50.152Z,0
2017-01-04T06:56:49.372Z,0
2017-01-04T06:57:50.366Z,0
2017-01-04T06:58:49.430Z,0
2017-01-04T06:59:48.850Z,0
2017-01-04T07:00:50.347Z,0
2017-01-04T07:01:49.921Z,0
2017-01-04T07:02:50.487Z,0
2017-01-04T07:04:19.495Z,0
2017-01-04T07:04:49.932Z,0
2017-01-04T07:05:50.076Z,0
2017-01-04T07:06:50.681Z,0
2017-01-04T07:07:55.076Z,0
2017-01-04T07:08:50.714Z,0
2017-01-04T07:09:50.394Z,0
2017-01-04T07:10:51.502Z,0
2017-01-04T07:11:49.952Z,0
2017-01-04T07:12:50.548Z,0
2017-01-04T07:13:50.011Z,0
2017-01-04T07:14:49.944Z,0
2017-01-04T07:15:49.490Z,5
2017-01-04T07:16:50.888Z,5
2017-01-04T07:17:51.528Z,5
2017-01-04T07:18:49.521Z,5
2017-01-04T07:19:49.934Z,5
2017-01-04T07:20:50.139Z,5
2017-01-04T07:21:50.207Z,10
2017-01-04T07:22:50.616Z,10
2017-01-04T07:23:50.090Z,10
2017-01-04T07:24:50.321Z,10
2017-01-04T07:25:49.767Z,10
2017-01-04T07:26:51.814Z,10
2017-01-04T07:27:50.056Z,15
2017-01-04T07:28:49.655Z,15
2017-01-04T07:29:51.850Z,15
2017-01-04T07:30:50.694Z,20
2017-01-04T07:31:51.316Z,20
2017-01-04T07:32:49.967Z,20
2017-01-04T07:33:52.418Z,20
2017-01-04T07:34:50.505Z,25
2017-01-04T07:35:50.899Z,25
2017-01-04T07:36:51.064Z,25
2017-01-04T07:37:50.318Z,30
2017-01-04T07:38:49.911Z,30
2017-01-04T07:39:49.333Z,30
2017-01-04T07:40:50.712Z,30
2017-01-04T07:41:50.582Z,35
2017-01-04T07:42:50.278Z,35
2017-01-04T07:43:51.456Z,35
2017-01-04T07:44:50.417Z,40
2017-01-04T07:45:51.236Z,40
2017-01-04T07:46:50.712Z,45
2017-01-04T07:47:50.579Z,45
2017-01-04T07:48:50.608Z,45
2017-01-04T07:49:51.152Z,50
2017-01-04T07:50:49.938Z,55
2017-01-04T07:51:51.192Z,55
2017-01-04T07:52:52.069Z,60
2017-01-04T07:53:49.818Z,60
2017-01-04T07:54:50.476Z,65
2017-01-04T07:55:51.906Z,70
2017-01-04T07:56:49.831Z,75
2017-01-04T07:57:49.969Z,75
2017-01-04T07:58:50.319Z,80
2017-01-04T07:59:49.971Z,80
2017-01-04T08:00:49.757Z,80
2017-01-04T08:01:49.806Z,80
2017-01-04T08:02:50.329Z,80
2017-01-04T08:03:50.156Z,85
2017-01-04T08:04:49.642Z,80
2017-01-04T08:05:49.191Z,85
2017-01-04T08:06:49.843Z,80
2017-01-04T08:07:50.407Z,75
2017-01-04T08:08:50.299Z,80
2017-01-04T08:09:49.502Z,85
2017-01-04T08:10:51.332Z,90
2017-01-04T08:11:49.744Z,95
2017-01-04T08:12:49.675Z,100
2017-01-04T08:13:50.385Z,105
2017-01-04T08:14:50.198Z,115
2017-01-04T08:15:49.512Z,130
2017-01-04T08:16:49.513Z,140
2017-01-04T08:17:49.069Z,150
2017-01-04T08:18:49.712Z,145
2017-01-04T08:19:50.565Z,135
2017-01-04T08:20:49.801Z,130
2017-01-04T08:21:50.991Z,125
2017-01-04T08:22:49.779Z,125
2017-01-04T08:23:49.022Z,130
2017-01-04T08:24:49.414Z,130
2017-01-04T08:25:50.734Z,130
2017-01-04T08:26:49.797Z,120
2017-01-04T08:27:50.730Z,120
2017-01-04T08:28:49.807Z,110
2017-01-04T08:29:50.833Z,105
2017-01-04T08:30:50.522Z,110
2017-01-04T08:31:51.334Z,110
2017-01-04T08:32:49.834Z,115
2017-01-04T08:33:50.842Z,120
2017-01-04T08:34:49.655Z,115
2017-01-04T08:35:49.737Z,115
2017-01-04T08:36:50.008Z,110
2017-01-04T08:37:50.380Z,110
2017-01-04T08:38:50.657Z,115
2017-01-04T08:39:50.513Z,115
2017-01-04T08:40:50.853Z,120
2017-01-04T08:41:49.950Z,125
2017-01-04T08:42:51.419Z,125
2017-01-04T08:43:50.204Z,130
2017-01-04T08:44:49.447Z,140
2017-01-04T08:45:49.528Z,145
2017-01-04T08:46:50.670Z,135
2017-01-04T08:47:49.942Z,125
2017-01-04T08:48:49.872Z,120
2017-01-04T08:49:50.265Z,115
2017-01-04T08:50:50.388Z,110
2017-01-04T08:51:50.413Z,120
2017-01-04T08:52:50.061Z,130
2017-01-04T08:53:49.952Z,145
2017-01-04T08:54:50.463Z,150
2017-01-04T08:55:49.849Z,150
2017-01-04T08:56:51.435Z,145
2017-01-04T08:57:50.270Z,135
2017-01-04T08:58:50.599Z,130
2017-01-04T08:59:49.866Z,120
2017-01-04T09:00:50.407Z,115
2017-01-04T09:01:49.642Z,110
2017-01-04T09:02:50.234Z,110
2017-01-04T09:03:50.611Z,130
2017-01-04T09:04:50.576Z,115
2017-01-04T09:05:50.801Z,100
2017-01-04T09:06:50.325Z,110
2017-01-04T09:07:50.334Z,100
2017-01-04T09:08:50.386Z,95
2017-01-04T09:09:50.145Z,110
2017-01-04T09:10:50.873Z,125
2017-01-04T09:11:51.670Z,120
2017-01-04T09:12:52.347Z,125
2017-01-04T09:13:50.050Z,140
2017-01-04T09:14:49.936Z,130
2017-01-04T09:15:51.184Z,135
2017-01-04T09:16:51.063Z,155
2017-01-04T09:17:51.468Z,185
2017-01-04T09:18:51.307Z,190
2017-01-04T09:19:51.440Z,210
2017-01-04T09:20:49.841Z,245
2017-01-04T09:21:50.613Z,250
2017-01-04T09:22:49.745Z,245
2017-01-04T09:23:51.428Z,245
2017-01-04T09:24:52.571Z,245
2017-01-04T09:25:51.335Z,250
2017-01-04T09:26:51.978Z,235
2017-01-04T09:27:51.717Z,215
2017-01-04T09:28:50.030Z,210
2017-01-04T09:29:51.254Z,205
2017-01-04T09:30:52.047Z,230
2017-01-04T09:31:50.726Z,195
2017-01-04T09:32:51.811Z,180
2017-01-04T09:33:50.664Z,210
2017-01-04T09:34:50.278Z,215
2017-01-04T09:35:50.427Z,220
2017-01-04T09:36:50.530Z,210
2017-01-04T09:37:51.336Z,200
2017-01-04T09:38:50.538Z,190
2017-01-04T09:39:52.190Z,190
2017-01-04T09:40:51.055Z,190
2017-01-04T09:41:51.049Z,185
2017-01-04T09:42:50.424Z,185
2017-01-04T09:43:51.136Z,195
2017-01-04T09:44:51.220Z,185
2017-01-04T09:45:52.735Z,185
2017-01-04T09:46:50.865Z,185
2017-01-04T09:47:51.217Z,215
2017-01-04T09:48:52.071Z,245
2017-01-04T09:49:51.252Z,245
2017-01-04T09:50:51.644Z,295
2017-01-04T09:51:51.112Z,285
2017-01-04T09:52:51.086Z,365
2017-01-04T09:53:50.318Z,295
2017-01-04T09:54:50.616Z,210
2017-01-04T09:55:51.302Z,205
2017-01-04T09:56:51.433Z,250
2017-01-04T09:57:51.075Z,275
2017-01-04T09:58:51.056Z,315
2017-01-04T09:59:50.817Z,285
2017-01-04T10:00:51.640Z,250
2017-01-04T10:01:51.040Z,235
2017-01-04T10:02:52.367Z,205
2017-01-04T10:03:50.922Z,165
2017-01-04T10:04:52.487Z,150
2017-01-04T10:05:51.640Z,170
2017-01-04T10:06:51.239Z,170
2017-01-04T10:07:51.189Z,185
2017-01-04T10:08:51.419Z,175
2017-01-04T10:09:50.788Z,180
2017-01-04T10:10:50.971Z,180
2017-01-04T10:11:51.290Z,180
2017-01-04T10:12:50.772Z,185
2017-01-04T10:13:52.083Z,185
2017-01-04T10:14:50.716Z,170
2017-01-04T10:15:51.812Z,155
2017-01-04T10:16:52.583Z,160
2017-01-04T10:17:52.201Z,170
2017-01-04T10:18:50.616Z,170
2017-01-04T10:19:51.374Z,200
2017-01-04T10:20:51.916Z,235
2017-01-04T10:21:51.514Z,240
2017-01-04T10:22:51.914Z,285
2017-01-04T10:23:50.873Z,320
2017-01-04T10:24:54.787Z,370
2017-01-04T10:25:53.470Z,465
2017-01-04T10:26:52.169Z,410
2017-01-04T10:27:53.288Z,350
2017-01-04T10:28:52.460Z,385
2017-01-04T10:29:55.838Z,355
2017-01-04T10:30:55.251Z,310
2017-01-04T10:31:53.791Z,315
2017-01-04T10:32:51.387Z,285
2017-01-04T10:33:53.476Z,325
2017-01-04T10:34:53.426Z,375
2017-01-04T10:35:53.829Z,330
2017-01-04T10:36:51.835Z,330
2017-01-04T10:37:51.449Z,420
2017-01-04T10:38:51.502Z,350
2017-01-04T10:39:52.216Z,385
2017-01-04T10:40:51.353Z,370
2017-01-04T10:41:52.106Z,320
2017-01-04T10:42:51.453Z,350
2017-01-04T10:43:51.822Z,280
2017-01-04T10:44:51.733Z,365
2017-01-04T10:45:51.640Z,445
2017-01-04T10:46:53.351Z,380
2017-01-04T10:47:52.008Z,405
2017-01-04T10:48:51.212Z,390
2017-01-04T10:49:52.216Z,360
2017-01-04T10:50:51.659Z,370
2017-01-04T10:51:52.270Z,315
2017-01-04T10:52:52.062Z,310
2017-01-04T10:53:51.823Z,320
2017-01-04T10:54:52.086Z,330
2017-01-04T10:55:51.185Z,335
2017-01-04T10:56:52.217Z,350
2017-01-04T10:57:52.025Z,385
2017-01-04T10:58:52.194Z,380
2017-01-04T10:59:52.698Z,380
2017-01-04T11:00:52.376Z,370
2017-01-04T11:01:52.108Z,355
2017-01-04T11:02:51.776Z,345
2017-01-04T11:03:52.288Z,300
2017-01-04T11:04:51.630Z,290
2017-01-04T11:05:52.434Z,320
2017-01-04T11:06:51.578Z,340
2017-01-04T11:07:51.451Z,350
2017-01-04T11:08:52.324Z,370
2017-01-04T11:09:52.409Z,385
2017-01-04T11:10:51.405Z,400
2017-01-04T11:11:52.967Z,345
2017-01-04T11:12:52.498Z,310
2017-01-04T11:13:52.495Z,300
2017-01-04T11:14:52.021Z,300
2017-01-04T11:15:52.196Z,300
2017-01-04T11:16:52.974Z,245
2017-01-04T11:17:51.967Z,250
2017-01-04T11:18:52.954Z,285
2017-01-04T11:19:51.763Z,275
2017-01-04T11:20:51.836Z,295
2017-01-04T11:21:51.906Z,275
2017-01-04T11:22:53.056Z,290
2017-01-04T11:23:52.363Z,310
2017-01-04T11:24:52.734Z,260
2017-01-04T11:25:53.090Z,215
2017-01-04T11:26:52.656Z,220
2017-01-04T11:27:51.716Z,230
2017-01-04T11:28:52.054Z,250
2017-01-04T11:29:52.683Z,240
2017-01-04T11:30:52.318Z,245
2017-01-04T11:31:53.456Z,310
2017-01-04T11:32:52.157Z,350
2017-01-04T11:33:52.917Z,335
2017-01-04T11:34:52.088Z,390
2017-01-04T11:35:53.033Z,390
2017-01-04T11:36:51.750Z,380
2017-01-04T11:37:52.458Z,355
2017-01-04T11:38:52.159Z,315
2017-01-04T11:39:52.752Z,315
2017-01-04T11:40:52.950Z,320
2017-01-04T11:41:52.641Z,320
2017-01-04T11:42:52.698Z,250
2017-01-04T11:43:53.933Z,210
2017-01-04T11:44:52.488Z,300
2017-01-04T11:45:52.181Z,435
2017-01-04T11:46:52.547Z,500
2017-01-04T11:47:52.266Z,525
2017-01-04T11:48:52.300Z,475
2017-01-04T11:49:52.435Z,380
2017-01-04T11:50:53.072Z,330
2017-01-04T11:51:55.627Z,285
2017-01-04T11:52:52.918Z,285
2017-01-04T11:53:52.817Z,375
2017-01-04T11:54:52.442Z,345
2017-01-04T11:55:53.182Z,310
2017-01-04T11:56:53.298Z,345
2017-01-04T11:57:53.480Z,310
2017-01-04T11:58:53.128Z,305
2017-01-04T11:59:53.661Z,280
2017-01-04T12:00:52.639Z,220
2017-01-04T12:01:54.092Z,260
2017-01-04T12:02:53.140Z,250
2017-01-04T12:03:53.034Z,265
2017-01-04T12:04:53.433Z,250
2017-01-04T12:05:52.619Z,195
2017-01-04T12:06:52.659Z,160
2017-01-04T12:07:53.595Z,145
2017-01-04T12:08:52.526Z,140
2017-01-04T12:09:52.586Z,180
2017-01-04T12:10:52.590Z,220
2017-01-04T12:11:52.525Z,240
2017-01-04T12:12:53.606Z,225
2017-01-04T12:13:54.151Z,165
2017-01-04T12:14:53.024Z,145
2017-01-04T12:15:52.693Z,140
2017-01-04T12:16:53.296Z,120
2017-01-04T12:17:53.529Z,150
2017-01-04T12:18:52.864Z,190
2017-01-04T12:19:52.927Z,190
2017-01-04T12:20:53.173Z,170
2017-01-04T12:21:52.652Z,185
2017-01-04T12:22:53.303Z,210
2017-01-04T12:23:54.146Z,270
2017-01-04T12:24:52.272Z,330
2017-01-04T12:25:52.901Z,320
2017-01-04T12:26:52.447Z,285
2017-01-04T12:27:53.139Z,280
2017-01-04T12:28:52.418Z,295
2017-01-04T12:29:53.206Z,240
2017-01-04T12:30:53.602Z,170
2017-01-04T12:31:52.847Z,165
2017-01-04T12:32:53.287Z,145
2017-01-04T12:33:53.323Z,130
2017-01-04T12:34:53.269Z,130
2017-01-04T12:35:53.047Z,175
2017-01-04T12:36:53.283Z,190
2017-01-04T12:37:52.884Z,210
2017-01-04T12:38:53.327Z,340
2017-01-04T12:39:54.237Z,370
2017-01-04T12:40:53.803Z,345
2017-01-04T12:41:53.840Z,265
2017-01-04T12:42:53.469Z,225
2017-01-04T12:43:53.401Z,175
2017-01-04T12:44:53.704Z,150
2017-01-04T12:45:53.223Z,150
2017-01-04T12:46:54.666Z,150
2017-01-04T12:47:53.337Z,185
2017-01-04T12:48:53.630Z,200
2017-01-04T12:49:53.515Z,205
2017-01-04T12:50:53.566Z,195
2017-01-04T12:51:53.578Z,205
2017-01-04T12:52:53.297Z,225
2017-01-04T12:53:53.933Z,235
2017-01-04T12:54:55.563Z,225
2017-01-04T12:55:53.698Z,240
2017-01-04T12:56:54.046Z,255
2017-01-04T12:57:53.695Z,245
2017-01-04T12:58:53.832Z,245
2017-01-04T12:59:53.199Z,235
2017-01-04T13:00:52.914Z,220
2017-01-04T13:01:53.859Z,210
2017-01-04T13:02:53.428Z,170
2017-01-04T13:03:54.046Z,170
2017-01-04T13:04:53.914Z,145
2017-01-04T13:05:53.897Z,115
2017-01-04T13:06:53.208Z,90
2017-01-04T13:07:53.732Z,90
2017-01-04T13:08:53.422Z,60
2017-01-04T13:09:55.568Z,55
2017-01-04T13:10:53.934Z,60
2017-01-04T13:11:53.424Z,55
2017-01-04T13:12:54.380Z,50
2017-01-04T13:13:52.937Z,55
2017-01-04T13:14:53.633Z,55
2017-01-04T13:15:53.938Z,55
2017-01-04T13:16:53.345Z,55
2017-01-04T13:17:54.138Z,65
2017-01-04T13:18:53.399Z,80
2017-01-04T13:19:53.793Z,100
2017-01-04T13:20:54.386Z,130
2017-01-04T13:21:53.788Z,140
2017-01-04T13:22:54.911Z,150
2017-01-04T13:23:53.845Z,155
2017-01-04T13:24:54.283Z,145
2017-01-04T13:25:54.217Z,150
2017-01-04T13:26:53.554Z,155
2017-01-04T13:27:53.964Z,160
2017-01-04T13:28:54.805Z,155
2017-01-04T13:29:53.538Z,175
2017-01-04T13:30:53.889Z,175
2017-01-04T13:31:54.282Z,140
2017-01-04T13:32:53.975Z,105
2017-01-04T13:33:55.117Z,95
2017-01-04T13:34:54.153Z,95
2017-01-04T13:35:53.502Z,85
2017-01-04T13:36:54.324Z,65
2017-01-04T13:37:54.596Z,60
2017-01-04T13:38:54.537Z,55
2017-01-04T13:39:54.560Z,55
2017-01-04T13:40:53.652Z,50
2017-01-04T13:41:54.179Z,40
2017-01-04T13:42:53.828Z,35
2017-01-04T13:43:54.714Z,30
2017-01-04T13:44:53.810Z,25
2017-01-04T13:45:54.596Z,25
2017-01-04T13:46:53.983Z,25
2017-01-04T13:47:54.624Z,25
2017-01-04T13:48:53.580Z,35
2017-01-04T13:49:53.927Z,45
2017-01-04T13:50:54.769Z,50
2017-01-04T13:51:55.440Z,50
2017-01-04T13:52:53.871Z,55
2017-01-04T13:53:55.025Z,55
2017-01-04T13:54:53.511Z,50
2017-01-04T13:55:55.183Z,50
2017-01-04T13:56:54.522Z,45
2017-01-04T13:57:55.441Z,30
2017-01-04T13:58:54.574Z,25
2017-01-04T13:59:54.406Z,20
2017-01-04T14:00:55.244Z,15
2017-01-04T14:01:54.300Z,15
2017-01-04T14:02:54.612Z,15
2017-01-04T14:03:55.393Z,15
2017-01-04T14:04:54.807Z,20
2017-01-04T14:05:53.934Z,20
2017-01-04T14:06:55.020Z,25
2017-01-04T14:07:54.261Z,30
2017-01-04T14:08:55.520Z,30
2017-01-04T14:09:54.350Z,35
2017-01-04T14:10:56.177Z,35
2017-01-04T14:11:55.552Z,40
2017-01-04T14:12:54.485Z,45
2017-01-04T14:13:54.655Z,45
2017-01-04T14:14:54.725Z,40
2017-01-04T14:15:55.066Z,40
2017-01-04T14:16:54.866Z,40
2017-01-04T14:17:54.785Z,35
2017-01-04T14:18:54.694Z,40
2017-01-04T14:19:55.158Z,45
2017-01-04T14:20:54.885Z,50